sensor_id;sensor_type;location;lat;lon;timestamp;P1;durP1;ratioP1;P2;durP2;ratioP2
20972;SDS011;10645;52.370;13.314;2023-05-16T00:00:30;3.83;;;2.75;;
20972;SDS011;10645;52.370;13.314;2023-05-16T00:03:00;3.40;;;2.22;;
20972;SDS011;10645;52.370;13.314;2023-05-16T00:05:27;2.97;;;2.78;;
20972;SDS011;10645;52.370;13.314;2023-05-16T00:07:53;3.90;;;3.42;;
20972;SDS011;10645;52.370;13.314;2023-05-16T00:10:19;4.28;;;3.70;;
20972;SDS011;10645;52.370;13.314;2023-05-16T00:12:46;5.85;;;4.85;;
20972;SDS011;10645;52.370;13.314;2023-05-16T00:15:16;2.97;;;2.10;;
20972;SDS011;10645;52.370;13.314;2023-05-16T00:17:45;3.78;;;3.47;;
20972;SDS011;10645;52.370;13.314;2023-05-16T00:20:12;4.80;;;3.10;;
20972;SDS011;10645;52.370;13.314;2023-05-16T00:22:39;4.70;;;4.20;;
20972;SDS011;10645;52.370;13.314;2023-05-16T00:25:05;3.70;;;3.28;;
20972;SDS011;10645;52.370;13.314;2023-05-16T00:27:34;5.45;;;3.65;;
20972;SDS011;10645;52.370;13.314;2023-05-16T00:30:01;5.10;;;2.95;;
20972;SDS011;10645;52.370;13.314;2023-05-16T00:32:27;4.35;;;3.83;;
20972;SDS011;10645;52.370;13.314;2023-05-16T00:34:54;9.60;;;3.95;;
20972;SDS011;10645;52.370;13.314;2023-05-16T00:37:20;4.53;;;4.13;;
20972;SDS011;10645;52.370;13.314;2023-05-16T00:39:46;4.20;;;3.67;;
20972;SDS011;10645;52.370;13.314;2023-05-16T00:42:12;5.50;;;4.35;;
20972;SDS011;10645;52.370;13.314;2023-05-16T00:44:38;6.25;;;5.25;;
20972;SDS011;10645;52.370;13.314;2023-05-16T00:47:04;6.35;;;5.18;;
20972;SDS011;10645;52.370;13.314;2023-05-16T00:49:30;6.13;;;5.53;;
20972;SDS011;10645;52.370;13.314;2023-05-16T00:51:57;5.80;;;5.30;;
20972;SDS011;10645;52.370;13.314;2023-05-16T00:54:23;4.65;;;4.07;;
20972;SDS011;10645;52.370;13.314;2023-05-16T00:56:53;3.90;;;3.60;;
20972;SDS011;10645;52.370;13.314;2023-05-16T00:59:21;3.67;;;3.47;;
20972;SDS011;10645;52.370;13.314;2023-05-16T01:01:49;4.22;;;3.65;;
20972;SDS011;10645;52.370;13.314;2023-05-16T01:04:17;4.93;;;4.60;;
20972;SDS011;10645;52.370;13.314;2023-05-16T01:06:43;5.85;;;3.85;;
20972;SDS011;10645;52.370;13.314;2023-05-16T01:09:10;6.13;;;4.97;;
20972;SDS011;10645;52.370;13.314;2023-05-16T01:11:42;5.03;;;3.92;;
20972;SDS011;10645;52.370;13.314;2023-05-16T01:16:58;7.80;;;5.43;;
20972;SDS011;10645;52.370;13.314;2023-05-16T01:19:52;5.57;;;3.67;;
20972;SDS011;10645;52.370;13.314;2023-05-16T01:22:28;4.93;;;4.22;;
20972;SDS011;10645;52.370;13.314;2023-05-16T01:28:21;5.97;;;5.38;;
20972;SDS011;10645;52.370;13.314;2023-05-16T01:30:49;4.70;;;4.25;;
20972;SDS011;10645;52.370;13.314;2023-05-16T01:33:16;4.43;;;3.65;;
20972;SDS011;10645;52.370;13.314;2023-05-16T01:35:46;5.05;;;4.57;;
20972;SDS011;10645;52.370;13.314;2023-05-16T01:38:41;7.68;;;4.80;;
20972;SDS011;10645;52.370;13.314;2023-05-16T01:41:18;4.85;;;3.22;;
20972;SDS011;10645;52.370;13.314;2023-05-16T01:43:50;5.97;;;3.67;;
20972;SDS011;10645;52.370;13.314;2023-05-16T01:46:20;6.20;;;5.70;;
20972;SDS011;10645;52.370;13.314;2023-05-16T01:51:42;5.80;;;4.88;;
20972;SDS011;10645;52.370;13.314;2023-05-16T01:54:15;3.83;;;3.45;;
20972;SDS011;10645;52.370;13.314;2023-05-16T01:56:50;4.38;;;3.97;;
20972;SDS011;10645;52.370;13.314;2023-05-16T01:59:19;6.63;;;5.05;;
20972;SDS011;10645;52.370;13.314;2023-05-16T02:01:46;4.43;;;4.05;;
20972;SDS011;10645;52.370;13.314;2023-05-16T02:04:12;4.93;;;4.45;;
20972;SDS011;10645;52.370;13.314;2023-05-16T02:06:41;5.10;;;4.55;;
20972;SDS011;10645;52.370;13.314;2023-05-16T02:09:07;4.82;;;4.28;;
20972;SDS011;10645;52.370;13.314;2023-05-16T02:11:33;16.25;;;4.18;;
20972;SDS011;10645;52.370;13.314;2023-05-16T02:13:59;6.15;;;4.78;;
20972;SDS011;10645;52.370;13.314;2023-05-16T02:16:25;8.18;;;5.22;;
20972;SDS011;10645;52.370;13.314;2023-05-16T02:18:51;3.75;;;3.38;;
20972;SDS011;10645;52.370;13.314;2023-05-16T02:21:18;3.58;;;3.22;;
20972;SDS011;10645;52.370;13.314;2023-05-16T02:23:44;4.18;;;3.00;;
20972;SDS011;10645;52.370;13.314;2023-05-16T02:26:10;4.13;;;2.70;;
20972;SDS011;10645;52.370;13.314;2023-05-16T02:28:36;7.78;;;3.38;;
20972;SDS011;10645;52.370;13.314;2023-05-16T02:31:02;3.95;;;3.35;;
20972;SDS011;10645;52.370;13.314;2023-05-16T02:33:29;13.35;;;3.28;;
20972;SDS011;10645;52.370;13.314;2023-05-16T02:35:55;6.35;;;4.25;;
20972;SDS011;10645;52.370;13.314;2023-05-16T02:38:21;4.95;;;3.53;;
20972;SDS011;10645;52.370;13.314;2023-05-16T02:40:47;4.53;;;4.03;;
20972;SDS011;10645;52.370;13.314;2023-05-16T02:43:13;5.28;;;4.18;;
20972;SDS011;10645;52.370;13.314;2023-05-16T02:45:41;3.80;;;3.50;;
20972;SDS011;10645;52.370;13.314;2023-05-16T02:48:07;6.20;;;4.95;;
20972;SDS011;10645;52.370;13.314;2023-05-16T02:50:34;5.65;;;5.05;;
20972;SDS011;10645;52.370;13.314;2023-05-16T02:53:00;8.55;;;5.57;;
20972;SDS011;10645;52.370;13.314;2023-05-16T02:55:27;4.63;;;4.20;;
20972;SDS011;10645;52.370;13.314;2023-05-16T02:57:53;14.85;;;5.20;;
20972;SDS011;10645;52.370;13.314;2023-05-16T03:00:20;8.73;;;4.57;;
20972;SDS011;10645;52.370;13.314;2023-05-16T03:02:46;7.75;;;4.72;;
20972;SDS011;10645;52.370;13.314;2023-05-16T03:05:12;6.32;;;4.80;;
20972;SDS011;10645;52.370;13.314;2023-05-16T03:07:39;4.15;;;3.85;;
20972;SDS011;10645;52.370;13.314;2023-05-16T03:10:05;4.68;;;4.30;;
20972;SDS011;10645;52.370;13.314;2023-05-16T03:12:32;5.55;;;4.40;;
20972;SDS011;10645;52.370;13.314;2023-05-16T03:14:58;6.40;;;4.50;;
20972;SDS011;10645;52.370;13.314;2023-05-16T03:17:24;13.07;;;4.38;;
20972;SDS011;10645;52.370;13.314;2023-05-16T03:19:50;6.95;;;4.80;;
20972;SDS011;10645;52.370;13.314;2023-05-16T03:22:16;4.22;;;3.80;;
20972;SDS011;10645;52.370;13.314;2023-05-16T03:24:42;5.00;;;4.43;;
20972;SDS011;10645;52.370;13.314;2023-05-16T03:27:10;3.42;;;2.97;;
20972;SDS011;10645;52.370;13.314;2023-05-16T03:29:36;3.45;;;3.15;;
20972;SDS011;10645;52.370;13.314;2023-05-16T03:32:02;5.50;;;5.00;;
20972;SDS011;10645;52.370;13.314;2023-05-16T03:34:29;8.32;;;4.72;;
20972;SDS011;10645;52.370;13.314;2023-05-16T03:36:55;7.95;;;4.70;;
20972;SDS011;10645;52.370;13.314;2023-05-16T03:39:22;6.88;;;5.13;;
20972;SDS011;10645;52.370;13.314;2023-05-16T03:41:48;7.30;;;6.05;;
20972;SDS011;10645;52.370;13.314;2023-05-16T03:44:14;6.03;;;4.82;;
20972;SDS011;10645;52.370;13.314;2023-05-16T03:46:40;6.80;;;6.18;;
20972;SDS011;10645;52.370;13.314;2023-05-16T03:49:06;9.27;;;8.35;;
20972;SDS011;10645;52.370;13.314;2023-05-16T03:51:32;13.50;;;10.00;;
20972;SDS011;10645;52.370;13.314;2023-05-16T03:53:58;14.13;;;7.78;;
20972;SDS011;10645;52.370;13.314;2023-05-16T03:56:24;5.93;;;4.47;;
20972;SDS011;10645;52.370;13.314;2023-05-16T03:58:51;8.63;;;7.82;;
20972;SDS011;10645;52.370;13.314;2023-05-16T04:01:17;13.57;;;12.38;;
20972;SDS011;10645;52.370;13.314;2023-05-16T04:03:43;9.93;;;7.20;;
20972;SDS011;10645;52.370;13.314;2023-05-16T04:06:09;10.48;;;5.43;;
20972;SDS011;10645;52.370;13.314;2023-05-16T04:08:35;4.90;;;4.50;;
20972;SDS011;10645;52.370;13.314;2023-05-16T04:11:01;8.85;;;5.97;;
20972;SDS011;10645;52.370;13.314;2023-05-16T04:13:27;7.60;;;4.20;;
20972;SDS011;10645;52.370;13.314;2023-05-16T04:15:53;6.40;;;5.38;;
20972;SDS011;10645;52.370;13.314;2023-05-16T04:18:19;5.88;;;4.28;;
20972;SDS011;10645;52.370;13.314;2023-05-16T04:20:45;10.10;;;4.53;;
20972;SDS011;10645;52.370;13.314;2023-05-16T04:23:12;7.63;;;6.13;;
20972;SDS011;10645;52.370;13.314;2023-05-16T04:25:38;6.55;;;5.28;;
20972;SDS011;10645;52.370;13.314;2023-05-16T04:28:04;5.32;;;4.28;;
20972;SDS011;10645;52.370;13.314;2023-05-16T04:30:31;6.32;;;5.75;;
20972;SDS011;10645;52.370;13.314;2023-05-16T04:32:57;5.70;;;5.20;;
20972;SDS011;10645;52.370;13.314;2023-05-16T04:35:25;7.22;;;6.43;;
20972;SDS011;10645;52.370;13.314;2023-05-16T04:37:52;4.25;;;3.88;;
20972;SDS011;10645;52.370;13.314;2023-05-16T04:40:18;5.80;;;4.60;;
20972;SDS011;10645;52.370;13.314;2023-05-16T04:42:44;4.30;;;3.45;;
20972;SDS011;10645;52.370;13.314;2023-05-16T04:45:11;7.68;;;4.70;;
20972;SDS011;10645;52.370;13.314;2023-05-16T04:47:39;9.82;;;5.60;;
20972;SDS011;10645;52.370;13.314;2023-05-16T04:50:05;15.18;;;4.75;;
20972;SDS011;10645;52.370;13.314;2023-05-16T04:52:33;6.22;;;3.95;;
20972;SDS011;10645;52.370;13.314;2023-05-16T04:55:00;4.32;;;3.90;;
20972;SDS011;10645;52.370;13.314;2023-05-16T04:57:26;5.13;;;3.00;;
20972;SDS011;10645;52.370;13.314;2023-05-16T04:59:52;6.78;;;4.63;;
20972;SDS011;10645;52.370;13.314;2023-05-16T05:02:18;5.03;;;4.63;;
20972;SDS011;10645;52.370;13.314;2023-05-16T05:04:44;7.28;;;5.90;;
20972;SDS011;10645;52.370;13.314;2023-05-16T05:07:11;6.63;;;4.50;;
20972;SDS011;10645;52.370;13.314;2023-05-16T05:09:38;6.20;;;5.10;;
20972;SDS011;10645;52.370;13.314;2023-05-16T05:12:04;5.07;;;4.22;;
20972;SDS011;10645;52.370;13.314;2023-05-16T05:14:32;10.30;;;3.78;;
20972;SDS011;10645;52.370;13.314;2023-05-16T05:16:58;6.28;;;5.50;;
20972;SDS011;10645;52.370;13.314;2023-05-16T05:19:24;4.65;;;3.35;;
20972;SDS011;10645;52.370;13.314;2023-05-16T05:21:50;5.60;;;5.05;;
20972;SDS011;10645;52.370;13.314;2023-05-16T05:24:16;4.53;;;4.18;;
20972;SDS011;10645;52.370;13.314;2023-05-16T05:26:42;5.90;;;4.25;;
20972;SDS011;10645;52.370;13.314;2023-05-16T05:29:08;6.05;;;5.22;;
20972;SDS011;10645;52.370;13.314;2023-05-16T05:31:34;5.35;;;3.22;;
20972;SDS011;10645;52.370;13.314;2023-05-16T05:34:01;4.85;;;4.43;;
20972;SDS011;10645;52.370;13.314;2023-05-16T05:36:27;10.02;;;4.50;;
20972;SDS011;10645;52.370;13.314;2023-05-16T05:38:53;5.00;;;4.53;;
20972;SDS011;10645;52.370;13.314;2023-05-16T05:41:20;10.32;;;6.22;;
20972;SDS011;10645;52.370;13.314;2023-05-16T05:43:46;6.28;;;5.57;;
20972;SDS011;10645;52.370;13.314;2023-05-16T05:46:12;5.13;;;4.72;;
20972;SDS011;10645;52.370;13.314;2023-05-16T05:48:39;5.18;;;4.75;;
20972;SDS011;10645;52.370;13.314;2023-05-16T05:51:05;6.55;;;5.43;;
20972;SDS011;10645;52.370;13.314;2023-05-16T05:53:31;4.60;;;4.30;;
20972;SDS011;10645;52.370;13.314;2023-05-16T05:55:57;7.10;;;4.50;;
20972;SDS011;10645;52.370;13.314;2023-05-16T05:58:23;5.82;;;5.15;;
20972;SDS011;10645;52.370;13.314;2023-05-16T06:00:49;6.10;;;4.97;;
20972;SDS011;10645;52.370;13.314;2023-05-16T06:03:15;4.10;;;2.85;;
20972;SDS011;10645;52.370;13.314;2023-05-16T06:05:41;4.55;;;3.65;;
20972;SDS011;10645;52.370;13.314;2023-05-16T06:08:08;6.85;;;5.15;;
20972;SDS011;10645;52.370;13.314;2023-05-16T06:10:34;6.07;;;4.50;;
20972;SDS011;10645;52.370;13.314;2023-05-16T06:13:00;4.50;;;4.13;;
20972;SDS011;10645;52.370;13.314;2023-05-16T06:15:26;12.25;;;3.83;;
20972;SDS011;10645;52.370;13.314;2023-05-16T06:17:52;7.07;;;4.75;;
20972;SDS011;10645;52.370;13.314;2023-05-16T06:20:18;3.35;;;3.05;;
20972;SDS011;10645;52.370;13.314;2023-05-16T06:22:44;5.32;;;4.82;;
20972;SDS011;10645;52.370;13.314;2023-05-16T06:25:10;8.77;;;5.25;;
20972;SDS011;10645;52.370;13.314;2023-05-16T06:27:37;3.55;;;3.25;;
20972;SDS011;10645;52.370;13.314;2023-05-16T06:30:03;15.90;;;5.85;;
20972;SDS011;10645;52.370;13.314;2023-05-16T06:32:29;4.57;;;4.18;;
20972;SDS011;10645;52.370;13.314;2023-05-16T06:34:55;3.38;;;3.15;;
20972;SDS011;10645;52.370;13.314;2023-05-16T06:37:21;7.15;;;3.80;;
20972;SDS011;10645;52.370;13.314;2023-05-16T06:39:48;4.32;;;3.65;;
20972;SDS011;10645;52.370;13.314;2023-05-16T06:42:14;2.47;;;2.28;;
20972;SDS011;10645;52.370;13.314;2023-05-16T06:44:41;6.47;;;2.88;;
20972;SDS011;10645;52.370;13.314;2023-05-16T06:47:07;2.28;;;2.10;;
20972;SDS011;10645;52.370;13.314;2023-05-16T06:49:33;2.45;;;2.30;;
20972;SDS011;10645;52.370;13.314;2023-05-16T06:51:59;6.60;;;4.32;;
20972;SDS011;10645;52.370;13.314;2023-05-16T06:54:25;3.75;;;2.97;;
20972;SDS011;10645;52.370;13.314;2023-05-16T06:56:51;5.60;;;2.75;;
20972;SDS011;10645;52.370;13.314;2023-05-16T06:59:18;3.00;;;1.52;;
20972;SDS011;10645;52.370;13.314;2023-05-16T07:01:44;3.30;;;2.95;;
20972;SDS011;10645;52.370;13.314;2023-05-16T07:04:10;9.90;;;2.17;;
20972;SDS011;10645;52.370;13.314;2023-05-16T07:06:36;4.70;;;2.35;;
20972;SDS011;10645;52.370;13.314;2023-05-16T07:09:02;3.85;;;3.00;;
20972;SDS011;10645;52.370;13.314;2023-05-16T07:11:29;3.50;;;2.85;;
20972;SDS011;10645;52.370;13.314;2023-05-16T07:13:55;2.33;;;2.13;;
20972;SDS011;10645;52.370;13.314;2023-05-16T07:16:21;3.90;;;3.42;;
20972;SDS011;10645;52.370;13.314;2023-05-16T07:18:47;3.20;;;2.50;;
20972;SDS011;10645;52.370;13.314;2023-05-16T07:21:13;2.60;;;1.40;;
20972;SDS011;10645;52.370;13.314;2023-05-16T07:23:39;3.63;;;1.83;;
20972;SDS011;10645;52.370;13.314;2023-05-16T07:26:06;2.35;;;2.15;;
20972;SDS011;10645;52.370;13.314;2023-05-16T07:28:32;1.75;;;1.65;;
20972;SDS011;10645;52.370;13.314;2023-05-16T07:30:58;1.13;;;1.02;;
20972;SDS011;10645;52.370;13.314;2023-05-16T07:33:24;3.60;;;1.60;;
20972;SDS011;10645;52.370;13.314;2023-05-16T07:35:51;2.25;;;1.95;;
20972;SDS011;10645;52.370;13.314;2023-05-16T07:38:19;1.67;;;1.52;;
20972;SDS011;10645;52.370;13.314;2023-05-16T07:40:46;1.50;;;1.40;;
20972;SDS011;10645;52.370;13.314;2023-05-16T07:43:12;1.13;;;1.10;;
20972;SDS011;10645;52.370;13.314;2023-05-16T07:45:38;1.42;;;1.35;;
20972;SDS011;10645;52.370;13.314;2023-05-16T07:48:04;1.63;;;1.52;;
20972;SDS011;10645;52.370;13.314;2023-05-16T07:50:30;1.30;;;0.95;;
20972;SDS011;10645;52.370;13.314;2023-05-16T07:52:56;0.77;;;0.77;;
20972;SDS011;10645;52.370;13.314;2023-05-16T07:55:22;1.33;;;1.25;;
20972;SDS011;10645;52.370;13.314;2023-05-16T07:57:48;3.72;;;2.22;;
20972;SDS011;10645;52.370;13.314;2023-05-16T08:00:15;0.40;;;0.40;;
20972;SDS011;10645;52.370;13.314;2023-05-16T08:02:42;1.92;;;1.55;;
20972;SDS011;10645;52.370;13.314;2023-05-16T08:05:08;1.05;;;1.05;;
20972;SDS011;10645;52.370;13.314;2023-05-16T08:07:35;3.45;;;3.15;;
20972;SDS011;10645;52.370;13.314;2023-05-16T08:10:01;2.25;;;2.03;;
20972;SDS011;10645;52.370;13.314;2023-05-16T08:12:27;1.95;;;1.85;;
20972;SDS011;10645;52.370;13.314;2023-05-16T08:14:55;1.30;;;1.20;;
20972;SDS011;10645;52.370;13.314;2023-05-16T08:17:21;1.80;;;1.70;;
20972;SDS011;10645;52.370;13.314;2023-05-16T08:19:47;1.45;;;1.13;;
20972;SDS011;10645;52.370;13.314;2023-05-16T08:22:14;4.50;;;2.22;;
20972;SDS011;10645;52.370;13.314;2023-05-16T08:24:40;3.53;;;2.22;;
20972;SDS011;10645;52.370;13.314;2023-05-16T08:27:06;1.38;;;1.13;;
20972;SDS011;10645;52.370;13.314;2023-05-16T08:29:33;1.67;;;1.20;;
20972;SDS011;10645;52.370;13.314;2023-05-16T08:31:59;1.95;;;1.80;;
20972;SDS011;10645;52.370;13.314;2023-05-16T08:34:25;2.95;;;1.42;;
20972;SDS011;10645;52.370;13.314;2023-05-16T08:36:51;1.27;;;1.17;;
20972;SDS011;10645;52.370;13.314;2023-05-16T08:39:19;12.65;;;1.90;;
20972;SDS011;10645;52.370;13.314;2023-05-16T08:41:45;2.58;;;1.33;;
20972;SDS011;10645;52.370;13.314;2023-05-16T08:44:11;1.77;;;0.93;;
20972;SDS011;10645;52.370;13.314;2023-05-16T08:46:41;0.88;;;0.88;;
20972;SDS011;10645;52.370;13.314;2023-05-16T08:49:09;1.83;;;0.93;;
20972;SDS011;10645;52.370;13.314;2023-05-16T08:51:36;1.23;;;1.13;;
20972;SDS011;10645;52.370;13.314;2023-05-16T08:54:05;3.85;;;1.25;;
20972;SDS011;10645;52.370;13.314;2023-05-16T08:56:36;1.83;;;1.58;;
20972;SDS011;10645;52.370;13.314;2023-05-16T08:59:02;1.58;;;1.48;;
20972;SDS011;10645;52.370;13.314;2023-05-16T09:01:29;1.15;;;1.05;;
20972;SDS011;10645;52.370;13.314;2023-05-16T09:03:59;2.25;;;0.98;;
20972;SDS011;10645;52.370;13.314;2023-05-16T09:06:25;6.90;;;1.50;;
20972;SDS011;10645;52.370;13.314;2023-05-16T09:08:52;1.80;;;1.70;;
20972;SDS011;10645;52.370;13.314;2023-05-16T09:11:18;1.10;;;1.10;;
20972;SDS011;10645;52.370;13.314;2023-05-16T09:13:46;1.70;;;1.35;;
20972;SDS011;10645;52.370;13.314;2023-05-16T09:16:17;1.40;;;1.10;;
20972;SDS011;10645;52.370;13.314;2023-05-16T09:18:54;1.27;;;0.93;;
20972;SDS011;10645;52.370;13.314;2023-05-16T09:21:22;2.10;;;1.20;;
20972;SDS011;10645;52.370;13.314;2023-05-16T09:23:51;1.13;;;1.10;;
20972;SDS011;10645;52.370;13.314;2023-05-16T09:26:17;1.52;;;1.23;;
20972;SDS011;10645;52.370;13.314;2023-05-16T09:28:43;1.23;;;1.13;;
20972;SDS011;10645;52.370;13.314;2023-05-16T09:31:22;1.08;;;1.08;;
20972;SDS011;10645;52.370;13.314;2023-05-16T09:34:01;4.32;;;2.72;;
20972;SDS011;10645;52.370;13.314;2023-05-16T09:36:28;0.70;;;0.47;;
20972;SDS011;10645;52.370;13.314;2023-05-16T09:38:56;2.22;;;1.30;;
20972;SDS011;10645;52.370;13.314;2023-05-16T09:41:22;1.85;;;1.75;;
20972;SDS011;10645;52.370;13.314;2023-05-16T09:43:48;0.63;;;0.63;;
20972;SDS011;10645;52.370;13.314;2023-05-16T09:46:15;1.13;;;1.02;;
20972;SDS011;10645;52.370;13.314;2023-05-16T09:48:43;0.90;;;0.90;;
20972;SDS011;10645;52.370;13.314;2023-05-16T09:51:11;1.10;;;0.75;;
20972;SDS011;10645;52.370;13.314;2023-05-16T09:53:38;1.38;;;1.27;;
20972;SDS011;10645;52.370;13.314;2023-05-16T09:56:05;3.72;;;1.65;;
20972;SDS011;10645;52.370;13.314;2023-05-16T09:58:35;1.65;;;0.95;;
20972;SDS011;10645;52.370;13.314;2023-05-16T10:01:02;0.88;;;0.85;;
20972;SDS011;10645;52.370;13.314;2023-05-16T10:03:29;2.28;;;1.70;;
20972;SDS011;10645;52.370;13.314;2023-05-16T10:05:55;1.52;;;1.42;;
20972;SDS011;10645;52.370;13.314;2023-05-16T10:08:22;1.40;;;1.30;;
20972;SDS011;10645;52.370;13.314;2023-05-16T10:10:50;0.40;;;0.40;;
20972;SDS011;10645;52.370;13.314;2023-05-16T10:13:19;1.23;;;1.23;;
20972;SDS011;10645;52.370;13.314;2023-05-16T10:15:50;1.33;;;1.23;;
20972;SDS011;10645;52.370;13.314;2023-05-16T10:18:20;1.30;;;1.00;;
20972;SDS011;10645;52.370;13.314;2023-05-16T10:20:48;1.90;;;1.75;;
20972;SDS011;10645;52.370;13.314;2023-05-16T10:23:18;4.32;;;0.88;;
20972;SDS011;10645;52.370;13.314;2023-05-16T10:25:46;3.70;;;1.70;;
20972;SDS011;10645;52.370;13.314;2023-05-16T10:28:16;1.17;;;1.02;;
20972;SDS011;10645;52.370;13.314;2023-05-16T10:30:43;1.50;;;1.30;;
20972;SDS011;10645;52.370;13.314;2023-05-16T10:33:15;0.85;;;0.82;;
20972;SDS011;10645;52.370;13.314;2023-05-16T10:35:43;1.17;;;1.17;;
20972;SDS011;10645;52.370;13.314;2023-05-16T10:38:10;1.38;;;0.93;;
20972;SDS011;10645;52.370;13.314;2023-05-16T10:40:39;0.98;;;0.77;;
20972;SDS011;10645;52.370;13.314;2023-05-16T10:43:06;2.97;;;1.67;;
20972;SDS011;10645;52.370;13.314;2023-05-16T10:45:33;1.67;;;1.58;;
20972;SDS011;10645;52.370;13.314;2023-05-16T10:48:04;0.93;;;0.93;;
20972;SDS011;10645;52.370;13.314;2023-05-16T10:53:19;1.02;;;1.02;;
20972;SDS011;10645;52.370;13.314;2023-05-16T10:56:04;1.40;;;1.05;;
20972;SDS011;10645;52.370;13.314;2023-05-16T11:01:18;0.95;;;0.82;;
20972;SDS011;10645;52.370;13.314;2023-05-16T11:06:24;3.65;;;1.80;;
20972;SDS011;10645;52.370;13.314;2023-05-16T11:09:04;1.58;;;0.50;;
20972;SDS011;10645;52.370;13.314;2023-05-16T11:19:33;1.55;;;1.02;;
20972;SDS011;10645;52.370;13.314;2023-05-16T11:27:59;1.25;;;0.82;;
20972;SDS011;10645;52.370;13.314;2023-05-16T11:30:25;0.95;;;0.95;;
20972;SDS011;10645;52.370;13.314;2023-05-16T11:32:51;0.90;;;0.90;;
20972;SDS011;10645;52.370;13.314;2023-05-16T11:35:20;1.13;;;1.00;;
20972;SDS011;10645;52.370;13.314;2023-05-16T11:37:46;0.80;;;0.50;;
20972;SDS011;10645;52.370;13.314;2023-05-16T11:40:13;2.45;;;0.95;;
20972;SDS011;10645;52.370;13.314;2023-05-16T11:42:40;1.27;;;1.20;;
20972;SDS011;10645;52.370;13.314;2023-05-16T11:45:17;11.10;;;0.95;;
20972;SDS011;10645;52.370;13.314;2023-05-16T11:47:45;1.02;;;0.98;;
20972;SDS011;10645;52.370;13.314;2023-05-16T11:50:13;1.35;;;1.25;;
20972;SDS011;10645;52.370;13.314;2023-05-16T11:52:45;0.60;;;0.60;;
20972;SDS011;10645;52.370;13.314;2023-05-16T11:55:12;1.08;;;1.02;;
20972;SDS011;10645;52.370;13.314;2023-05-16T11:57:40;1.20;;;1.10;;
20972;SDS011;10645;52.370;13.314;2023-05-16T12:00:13;1.98;;;1.88;;
20972;SDS011;10645;52.370;13.314;2023-05-16T12:02:41;6.30;;;1.08;;
20972;SDS011;10645;52.370;13.314;2023-05-16T12:05:08;0.40;;;0.40;;
20972;SDS011;10645;52.370;13.314;2023-05-16T12:07:35;1.00;;;1.00;;
20972;SDS011;10645;52.370;13.314;2023-05-16T12:10:09;2.20;;;0.90;;
20972;SDS011;10645;52.370;13.314;2023-05-16T12:12:37;0.50;;;0.50;;
20972;SDS011;10645;52.370;13.314;2023-05-16T12:15:05;6.25;;;1.40;;
20972;SDS011;10645;52.370;13.314;2023-05-16T12:17:33;1.55;;;1.00;;
20972;SDS011;10645;52.370;13.314;2023-05-16T12:19:59;1.17;;;0.77;;
20972;SDS011;10645;52.370;13.314;2023-05-16T12:22:26;0.88;;;0.88;;
20972;SDS011;10645;52.370;13.314;2023-05-16T12:24:52;0.55;;;0.55;;
20972;SDS011;10645;52.370;13.314;2023-05-16T12:27:21;1.08;;;0.73;;
20972;SDS011;10645;52.370;13.314;2023-05-16T12:29:49;2.25;;;0.70;;
20972;SDS011;10645;52.370;13.314;2023-05-16T12:32:19;1.00;;;0.93;;
20972;SDS011;10645;52.370;13.314;2023-05-16T12:34:49;1.35;;;1.35;;
20972;SDS011;10645;52.370;13.314;2023-05-16T12:37:16;1.42;;;0.60;;
20972;SDS011;10645;52.370;13.314;2023-05-16T12:39:43;1.23;;;1.10;;
20972;SDS011;10645;52.370;13.314;2023-05-16T12:42:12;1.50;;;1.10;;
20972;SDS011;10645;52.370;13.314;2023-05-16T12:44:39;0.57;;;0.57;;
20972;SDS011;10645;52.370;13.314;2023-05-16T12:47:12;5.15;;;1.75;;
20972;SDS011;10645;52.370;13.314;2023-05-16T12:49:44;4.97;;;1.92;;
20972;SDS011;10645;52.370;13.314;2023-05-16T12:52:16;2.28;;;0.85;;
20972;SDS011;10645;52.370;13.314;2023-05-16T12:54:44;3.13;;;0.70;;
20972;SDS011;10645;52.370;13.314;2023-05-16T12:57:10;2.08;;;1.95;;
20972;SDS011;10645;52.370;13.314;2023-05-16T12:59:36;1.17;;;0.57;;
20972;SDS011;10645;52.370;13.314;2023-05-16T13:02:03;2.80;;;1.55;;
20972;SDS011;10645;52.370;13.314;2023-05-16T13:04:29;0.63;;;0.63;;
20972;SDS011;10645;52.370;13.314;2023-05-16T13:06:56;1.15;;;1.00;;
20972;SDS011;10645;52.370;13.314;2023-05-16T13:09:22;1.25;;;0.80;;
20972;SDS011;10645;52.370;13.314;2023-05-16T13:11:48;2.30;;;1.90;;
20972;SDS011;10645;52.370;13.314;2023-05-16T13:14:18;6.85;;;1.08;;
20972;SDS011;10645;52.370;13.314;2023-05-16T13:16:44;2.33;;;1.15;;
20972;SDS011;10645;52.370;13.314;2023-05-16T13:19:10;4.13;;;0.90;;
20972;SDS011;10645;52.370;13.314;2023-05-16T13:21:36;2.72;;;2.17;;
20972;SDS011;10645;52.370;13.314;2023-05-16T13:24:02;3.25;;;2.00;;
20972;SDS011;10645;52.370;13.314;2023-05-16T13:26:28;1.27;;;1.02;;
20972;SDS011;10645;52.370;13.314;2023-05-16T13:28:54;1.17;;;1.08;;
20972;SDS011;10645;52.370;13.314;2023-05-16T13:31:20;1.02;;;1.02;;
20972;SDS011;10645;52.370;13.314;2023-05-16T13:33:47;1.38;;;1.27;;
20972;SDS011;10645;52.370;13.314;2023-05-16T13:36:13;0.82;;;0.82;;
20972;SDS011;10645;52.370;13.314;2023-05-16T13:38:39;0.80;;;0.80;;
20972;SDS011;10645;52.370;13.314;2023-05-16T13:41:08;1.50;;;1.40;;
20972;SDS011;10645;52.370;13.314;2023-05-16T13:43:34;1.30;;;1.27;;
20972;SDS011;10645;52.370;13.314;2023-05-16T13:46:01;5.63;;;1.13;;
20972;SDS011;10645;52.370;13.314;2023-05-16T13:48:27;1.80;;;1.23;;
20972;SDS011;10645;52.370;13.314;2023-05-16T13:50:53;1.17;;;1.17;;
20972;SDS011;10645;52.370;13.314;2023-05-16T13:53:20;1.95;;;0.65;;
20972;SDS011;10645;52.370;13.314;2023-05-16T13:55:46;0.55;;;0.50;;
20972;SDS011;10645;52.370;13.314;2023-05-16T13:58:12;1.42;;;1.33;;
20972;SDS011;10645;52.370;13.314;2023-05-16T14:00:38;0.60;;;0.60;;
20972;SDS011;10645;52.370;13.314;2023-05-16T14:03:04;1.83;;;1.20;;
20972;SDS011;10645;52.370;13.314;2023-05-16T14:05:31;0.63;;;0.63;;
20972;SDS011;10645;52.370;13.314;2023-05-16T14:07:57;0.88;;;0.55;;
20972;SDS011;10645;52.370;13.314;2023-05-16T14:10:23;2.03;;;1.17;;
20972;SDS011;10645;52.370;13.314;2023-05-16T14:12:49;7.40;;;1.08;;
20972;SDS011;10645;52.370;13.314;2023-05-16T14:15:16;5.00;;;1.05;;
20972;SDS011;10645;52.370;13.314;2023-05-16T14:17:42;5.63;;;0.85;;
20972;SDS011;10645;52.370;13.314;2023-05-16T14:20:08;2.47;;;0.70;;
20972;SDS011;10645;52.370;13.314;2023-05-16T14:22:35;1.35;;;0.57;;
20972;SDS011;10645;52.370;13.314;2023-05-16T14:25:02;0.75;;;0.75;;
20972;SDS011;10645;52.370;13.314;2023-05-16T14:27:28;1.05;;;0.30;;
20972;SDS011;10645;52.370;13.314;2023-05-16T14:29:54;0.73;;;0.73;;
20972;SDS011;10645;52.370;13.314;2023-05-16T14:32:20;1.08;;;0.73;;
20972;SDS011;10645;52.370;13.314;2023-05-16T14:34:46;1.85;;;1.40;;
20972;SDS011;10645;52.370;13.314;2023-05-16T14:37:12;1.17;;;1.08;;
20972;SDS011;10645;52.370;13.314;2023-05-16T14:39:42;2.63;;;0.65;;
20972;SDS011;10645;52.370;13.314;2023-05-16T14:42:11;0.50;;;0.50;;
20972;SDS011;10645;52.370;13.314;2023-05-16T14:44:37;2.40;;;0.95;;
20972;SDS011;10645;52.370;13.314;2023-05-16T14:47:03;1.50;;;0.88;;
20972;SDS011;10645;52.370;13.314;2023-05-16T14:49:29;0.25;;;0.25;;
20972;SDS011;10645;52.370;13.314;2023-05-16T14:51:56;1.33;;;1.23;;
20972;SDS011;10645;52.370;13.314;2023-05-16T14:54:22;0.40;;;0.40;;
20972;SDS011;10645;52.370;13.314;2023-05-16T14:56:48;2.30;;;1.42;;
20972;SDS011;10645;52.370;13.314;2023-05-16T14:59:14;0.63;;;0.63;;
20972;SDS011;10645;52.370;13.314;2023-05-16T15:01:41;0.57;;;0.43;;
20972;SDS011;10645;52.370;13.314;2023-05-16T15:04:07;2.45;;;0.63;;